KAUS - Austin/Bergstrom Int, TX, US

Issued at 1721 UTC 29 May 2020
Updated at 2326 UTC 29 May 2020
Potential Impact None Slight Moderate High
Time2253Z 30/00Z 30/01Z 30/02Z 30/03Z 30/04Z 30/05Z 30/06Z 30/07Z 30/08Z 30/09Z 30/10Z 30/11Z 30/12Z>>
Type OBS PRVL PRVL PRVL PRVL PRVL PRVL PRVL PRVL PRVL PRVL PRVL PRVL PRVL
VIS 10 >6 >6 >6 >6 >6 >6 >6 >6 >6 >6 >6 >6 >6
CIG 250 -- -- -- -- -- -- -- -- -- -- -- -- --
Cover BKN FEW FEW FEW FEW FEW FEW FEW FEW FEW FEW FEW FEW FEW
FltCat VFR VFR VFR VFR VFR VFR VFR VFR VFR VFR VFR VFR VFR VFR
WX -- -- -- -- -- -- -- -- -- -- -- -- -- --
WDir 20 20 20 20 20 20 20 20 20 20 20 20 20 20
WSpd 14 8 8 8 8 8 8 8 8 8 8 8 8 8
WGst -- -- -- -- -- -- -- -- -- -- -- -- -- --
Raw TAF
KAUS 291721Z 2918/3024 02011KT P6SM FEW035 SCT250
  FM292100 02008KT P6SM FEW250
  FM301500 05006KT P6SM FEW250


Raw METAR
KAUS 292253Z 02014KT 10SM FEW100 BKN250 31/14 A3006 RMK AO2 SLP169 T03060144
KAUS 292153Z 05013G20KT 10SM FEW040 FEW100 BKN250 31/15 A3007 RMK AO2 SLP173 T03110150
KAUS 292053Z 03013G19KT 10SM FEW040 FEW100 BKN250 30/17 A3009 RMK AO2 SLP181 T03000167 58004

METAR Board
Radar Display
Forecast Discussion
For situational awareness. Not to be used for flight planning purposes.